Time;durP1;ratioP1;P1;durP2;ratioP2;P2;SDS_P1;SDS_P2;PMS_P1;PMS_P2;Temp;Humidity;BMP_temperature;BMP_pressure;BME280_temperature;BME280_humidity;BME280_pressure;Samples;Min_cycle;Max_cycle;Signal;HPM_P1;HPM_P2
2023/06/10 00:01:30;;;;;;;4.53;3.30;;;;;;;;;;5056415;28;20025;-77
2023/06/10 00:03:55;;;;;;;5.57;3.50;;;;;;;;;;5057034;28;20070;-77
2023/06/10 00:06:24;;;;;;;4.07;3.10;;;;;;;;;;5040185;28;20033;-77
2023/06/10 00:08:49;;;;;;;4.38;3.38;;;;;;;;;;5074265;28;20020;-77
2023/06/10 00:11:14;;;;;;;3.53;3.15;;;;;;;;;;5074676;28;20039;-77
2023/06/10 00:13:40;;;;;;;4.30;3.10;;;;;;;;;;5074378;28;20028;-77
2023/06/10 00:16:06;;;;;;;4.75;3.38;;;;;;;;;;5056223;28;20040;-77
2023/06/10 00:18:31;;;;;;;4.95;3.30;;;;;;;;;;5056500;28;20028;-77
2023/06/10 00:21:02;;;;;;;4.88;3.20;;;;;;;;;;5056101;28;20033;-77
2023/06/10 00:23:29;;;;;;;4.70;3.17;;;;;;;;;;5056974;28;20149;-77
2023/06/10 00:25:54;;;;;;;3.80;2.97;;;;;;;;;;5056403;28;20090;-77
2023/06/10 00:28:19;;;;;;;4.18;3.20;;;;;;;;;;5056061;28;20055;-77
2023/06/10 00:30:45;;;;;;;3.83;3.20;;;;;;;;;;5056044;28;20039;-78
2023/06/10 00:33:10;;;;;;;4.22;3.00;;;;;;;;;;5073724;28;20033;-77
2023/06/10 00:35:36;;;;;;;5.63;3.30;;;;;;;;;;5073762;28;20537;-78
2023/06/10 00:38:01;;;;;;;3.30;2.83;;;;;;;;;;5056138;28;20115;-77
2023/06/10 00:40:26;;;;;;;4.22;3.35;;;;;;;;;;5056026;28;20371;-77
2023/06/10 00:42:52;;;;;;;3.33;2.92;;;;;;;;;;5055957;28;20024;-77
2023/06/10 00:45:17;;;;;;;3.45;2.92;;;;;;;;;;5039159;28;20480;-77
2023/06/10 00:47:43;;;;;;;3.65;3.08;;;;;;;;;;5055949;28;20029;-77
2023/06/10 00:50:08;;;;;;;3.53;2.88;;;;;;;;;;5055487;28;20044;-77
2023/06/10 00:52:35;;;;;;;4.25;3.20;;;;;;;;;;5074220;28;20379;-77
2023/06/10 00:55:00;;;;;;;3.35;2.72;;;;;;;;;;5073340;28;20108;-77
2023/06/10 00:57:26;;;;;;;3.75;3.10;;;;;;;;;;5055737;28;20450;-77
2023/06/10 00:59:51;;;;;;;3.97;2.92;;;;;;;;;;5039147;28;20394;-77
2023/06/10 01:02:17;;;;;;;4.72;3.08;;;;;;;;;;5055738;28;20486;-77
2023/06/10 01:04:42;;;;;;;3.15;2.85;;;;;;;;;;5055520;28;20025;-77
2023/06/10 01:07:20;;;;;;;3.58;2.80;;;;;;;;;;5055037;28;20151;-77
2023/06/10 01:09:56;;;;;;;4.03;2.85;;;;;;;;;;5038910;28;20118;-77
2023/06/10 01:12:34;;;;;;;3.13;2.60;;;;;;;;;;5055842;28;20040;-77
2023/06/10 01:15:01;;;;;;;4.20;2.90;;;;;;;;;;5038781;28;20099;-77
2023/06/10 01:17:27;;;;;;;7.60;2.97;;;;;;;;;;5038736;28;20021;-77
2023/06/10 01:19:56;;;;;;;3.08;2.72;;;;;;;;;;5055377;28;20035;-77
2023/06/10 01:22:24;;;;;;;4.13;3.03;;;;;;;;;;5038640;28;20082;-77
2023/06/10 01:24:50;;;;;;;4.15;2.70;;;;;;;;;;5055099;28;20368;-77
2023/06/10 01:27:16;;;;;;;3.55;2.60;;;;;;;;;;5039207;28;20029;-77
2023/06/10 01:29:45;;;;;;;3.85;3.03;;;;;;;;;;5055516;28;20022;-77
2023/06/10 01:32:29;;;;;;;3.25;2.78;;;;;;;;;;5055389;28;20067;-77
2023/06/10 01:34:55;;;;;;;7.82;3.97;;;;;;;;;;5055392;28;20028;-77
2023/06/10 01:37:24;;;;;;;3.28;2.90;;;;;;;;;;5055369;28;20074;-77
2023/06/10 01:39:50;;;;;;;3.33;2.83;;;;;;;;;;5055072;28;20025;-78
2023/06/10 01:42:16;;;;;;;3.55;2.88;;;;;;;;;;5051697;28;20053;-77
2023/06/10 01:44:41;;;;;;;3.50;2.83;;;;;;;;;;5052929;28;20104;-77
2023/06/10 01:47:07;;;;;;;2.75;2.42;;;;;;;;;;5034960;28;20028;-77
2023/06/10 01:49:33;;;;;;;2.95;2.58;;;;;;;;;;5035041;28;20029;-77
2023/06/10 01:51:58;;;;;;;2.97;2.47;;;;;;;;;;5053120;28;20383;-77
2023/06/10 01:54:23;;;;;;;4.68;3.00;;;;;;;;;;5053041;28;20043;-77
2023/06/10 01:56:49;;;;;;;3.88;2.60;;;;;;;;;;5052726;28;20078;-77
2023/06/10 01:59:15;;;;;;;3.17;2.70;;;;;;;;;;5052836;28;20029;-78
2023/06/10 02:01:41;;;;;;;3.45;2.78;;;;;;;;;;5051582;28;20532;-77
2023/06/10 02:04:06;;;;;;;3.65;2.72;;;;;;;;;;5053077;28;20056;-77
2023/06/10 02:06:31;;;;;;;4.00;2.85;;;;;;;;;;5053299;28;20033;-77
2023/06/10 02:08:57;;;;;;;3.28;2.72;;;;;;;;;;5052875;28;20044;-77
2023/06/10 02:11:22;;;;;;;2.75;2.45;;;;;;;;;;5053597;28;20055;-77
2023/06/10 02:13:47;;;;;;;3.58;2.90;;;;;;;;;;5051463;28;20036;-77
2023/06/10 02:16:13;;;;;;;3.22;2.70;;;;;;;;;;5034775;28;20091;-77
2023/06/10 02:18:42;;;;;;;3.03;2.72;;;;;;;;;;5035331;28;20053;-77
2023/06/10 02:21:08;;;;;;;3.70;2.70;;;;;;;;;;5055113;28;20098;-77
2023/06/10 02:23:33;;;;;;;3.63;2.78;;;;;;;;;;5056615;28;20032;-77
2023/06/10 02:25:59;;;;;;;3.17;2.78;;;;;;;;;;5056503;28;20103;-77
2023/06/10 02:28:25;;;;;;;3.53;2.90;;;;;;;;;;5055305;28;20079;-77
2023/06/10 02:30:51;;;;;;;3.35;2.95;;;;;;;;;;5056673;28;20020;-77
2023/06/10 02:33:17;;;;;;;3.22;2.88;;;;;;;;;;5054931;28;20464;-77
2023/06/10 02:35:42;;;;;;;3.75;2.65;;;;;;;;;;5055385;28;20033;-77
2023/06/10 02:38:08;;;;;;;4.75;2.70;;;;;;;;;;5038216;28;20029;-77
2023/06/10 02:40:33;;;;;;;3.42;2.78;;;;;;;;;;5058068;28;20377;-77
2023/06/10 02:42:59;;;;;;;3.15;2.55;;;;;;;;;;5058280;28;20036;-77
2023/06/10 02:45:24;;;;;;;3.42;2.70;;;;;;;;;;5057764;28;20024;-77
2023/06/10 02:47:50;;;;;;;2.80;2.55;;;;;;;;;;5057850;28;20024;-77
2023/06/10 02:50:15;;;;;;;4.95;2.72;;;;;;;;;;5057876;28;20404;-77
2023/06/10 02:52:41;;;;;;;3.50;2.75;;;;;;;;;;5075793;28;20021;-77
2023/06/10 02:55:07;;;;;;;3.22;2.63;;;;;;;;;;5075924;28;20035;-77
2023/06/10 02:57:32;;;;;;;3.13;2.53;;;;;;;;;;5057649;28;20376;-77
2023/06/10 02:59:58;;;;;;;3.58;2.75;;;;;;;;;;5057788;28;20044;-77
2023/06/10 03:02:28;;;;;;;4.65;2.80;;;;;;;;;;5040933;28;20067;-77
2023/06/10 03:04:55;;;;;;;3.20;2.60;;;;;;;;;;5058914;28;20099;-77
2023/06/10 03:07:20;;;;;;;4.38;2.60;;;;;;;;;;5057588;28;20097;-77
2023/06/10 03:09:46;;;;;;;3.97;2.90;;;;;;;;;;5041146;28;20455;-77
2023/06/10 03:12:11;;;;;;;3.45;2.80;;;;;;;;;;5057327;28;20028;-77
2023/06/10 03:14:38;;;;;;;3.35;2.83;;;;;;;;;;5057184;28;20029;-77
2023/06/10 03:17:04;;;;;;;3.30;2.50;;;;;;;;;;5041799;28;20395;-77
2023/06/10 03:19:30;;;;;;;2.60;2.30;;;;;;;;;;5057792;28;20078;-77
2023/06/10 03:22:13;;;;;;;3.50;2.90;;;;;;;;;;5057550;28;20029;-77
2023/06/10 03:24:39;;;;;;;3.33;2.67;;;;;;;;;;5057276;28;20024;-77
2023/06/10 03:27:07;;;;;;;2.88;2.60;;;;;;;;;;5057540;28;20425;-77
2023/06/10 03:29:32;;;;;;;3.03;2.53;;;;;;;;;;5057509;28;20020;-77
2023/06/10 03:31:58;;;;;;;5.40;2.70;;;;;;;;;;5056205;28;20051;-78
2023/06/10 03:34:23;;;;;;;3.78;2.72;;;;;;;;;;5056960;28;20107;-77
2023/06/10 03:36:49;;;;;;;2.97;2.67;;;;;;;;;;5057240;28;20028;-77
2023/06/10 03:39:15;;;;;;;5.15;3.00;;;;;;;;;;5040703;28;20036;-77
2023/06/10 03:41:40;;;;;;;3.00;2.58;;;;;;;;;;5074567;28;20067;-77
2023/06/10 03:44:06;;;;;;;5.22;2.92;;;;;;;;;;5074686;28;20394;-77
2023/06/10 03:46:31;;;;;;;4.55;2.92;;;;;;;;;;5056634;28;20029;-77
2023/06/10 03:48:57;;;;;;;4.38;2.55;;;;;;;;;;5040358;28;20147;-77
2023/06/10 03:51:22;;;;;;;3.20;2.83;;;;;;;;;;5057011;28;20039;-77
2023/06/10 03:53:48;;;;;;;3.80;2.80;;;;;;;;;;5056524;28;20040;-77
2023/06/10 03:56:13;;;;;;;2.97;2.65;;;;;;;;;;5074596;28;20033;-76
2023/06/10 03:58:38;;;;;;;3.38;2.67;;;;;;;;;;5056406;28;20028;-77
2023/06/10 04:01:04;;;;;;;3.30;2.72;;;;;;;;;;5074163;28;20095;-76
2023/06/10 04:03:29;;;;;;;3.33;2.85;;;;;;;;;;5074218;28;20024;-76
2023/06/10 04:05:54;;;;;;;6.22;3.22;;;;;;;;;;5057075;28;20162;-77
2023/06/10 04:08:20;;;;;;;3.38;2.50;;;;;;;;;;5074492;28;20029;-76
2023/06/10 04:10:46;;;;;;;2.83;2.50;;;;;;;;;;5074498;28;20472;-76
2023/06/10 04:13:11;;;;;;;5.47;2.80;;;;;;;;;;5056449;28;20112;-76
2023/06/10 04:15:36;;;;;;;3.50;2.55;;;;;;;;;;5056459;28;20350;-76
2023/06/10 04:18:02;;;;;;;3.45;2.95;;;;;;;;;;5073962;28;20032;-77
2023/06/10 04:20:28;;;;;;;3.83;2.67;;;;;;;;;;5056314;28;20467;-77
2023/06/10 04:22:53;;;;;;;3.42;2.63;;;;;;;;;;5056212;28;20029;-77
2023/06/10 04:25:19;;;;;;;4.15;3.00;;;;;;;;;;5074194;28;20112;-77
2023/06/10 04:27:44;;;;;;;3.20;2.78;;;;;;;;;;5039377;28;20032;-77
2023/06/10 04:30:10;;;;;;;2.92;2.63;;;;;;;;;;5055926;28;20029;-79
2023/06/10 04:32:36;;;;;;;4.70;2.88;;;;;;;;;;5055863;28;20094;-78
2023/06/10 04:35:01;;;;;;;4.10;2.67;;;;;;;;;;5055686;28;20395;-78
2023/06/10 04:37:29;;;;;;;3.90;2.75;;;;;;;;;;5073795;28;20053;-79
2023/06/10 04:39:54;;;;;;;3.80;2.88;;;;;;;;;;5056437;28;20462;-78
2023/06/10 04:42:19;;;;;;;3.28;2.80;;;;;;;;;;5069634;28;20143;-77
2023/06/10 04:44:45;;;;;;;5.20;2.97;;;;;;;;;;5073655;28;20025;-78
2023/06/10 04:47:10;;;;;;;4.00;2.40;;;;;;;;;;5073444;28;20036;-77
2023/06/10 04:49:36;;;;;;;3.30;2.35;;;;;;;;;;5072294;28;20044;-77
2023/06/10 04:52:04;;;;;;;2.88;2.58;;;;;;;;;;5056449;28;20035;-78
2023/06/10 04:54:29;;;;;;;3.83;2.45;;;;;;;;;;5073064;28;20039;-77
2023/06/10 04:56:54;;;;;;;3.10;2.40;;;;;;;;;;5072431;28;20032;-79
2023/06/10 04:59:20;;;;;;;3.42;2.78;;;;;;;;;;5056256;28;20115;-78
2023/06/10 05:01:45;;;;;;;3.65;2.47;;;;;;;;;;5068021;28;20041;-78
2023/06/10 05:04:11;;;;;;;5.47;2.50;;;;;;;;;;5069712;28;20033;-77
2023/06/10 05:06:36;;;;;;;2.95;2.42;;;;;;;;;;5073329;28;20024;-78
2023/06/10 05:09:02;;;;;;;3.85;2.20;;;;;;;;;;5055030;28;20050;-77
2023/06/10 05:11:27;;;;;;;9.10;2.92;;;;;;;;;;5072746;28;20036;-78
2023/06/10 05:13:53;;;;;;;3.53;2.40;;;;;;;;;;5038730;28;20036;-77
2023/06/10 05:16:18;;;;;;;3.78;2.80;;;;;;;;;;5074138;28;20028;-78
2023/06/10 05:18:44;;;;;;;5.07;2.90;;;;;;;;;;5055427;28;20033;-78
2023/06/10 05:21:11;;;;;;;4.43;3.13;;;;;;;;;;5071923;28;20070;-78
2023/06/10 05:23:36;;;;;;;3.08;2.58;;;;;;;;;;5072029;28;20032;-77
2023/06/10 05:26:02;;;;;;;3.17;2.58;;;;;;;;;;5072119;28;20032;-77
2023/06/10 05:28:27;;;;;;;4.00;2.85;;;;;;;;;;5073315;28;20107;-78
2023/06/10 05:30:53;;;;;;;6.05;3.13;;;;;;;;;;5071895;28;20028;-78
2023/06/10 05:33:18;;;;;;;3.70;2.85;;;;;;;;;;5071965;28;20033;-77
2023/06/10 05:35:44;;;;;;;7.88;3.10;;;;;;;;;;5073295;28;20475;-78
2023/06/10 05:38:09;;;;;;;7.00;3.22;;;;;;;;;;5073511;28;20048;-78
2023/06/10 05:40:34;;;;;;;6.15;3.35;;;;;;;;;;5072305;28;20071;-78
2023/06/10 05:43:00;;;;;;;4.63;2.97;;;;;;;;;;5055169;28;20115;-78
2023/06/10 05:45:25;;;;;;;4.03;3.20;;;;;;;;;;5038646;28;20036;-78
2023/06/10 05:47:51;;;;;;;5.03;2.92;;;;;;;;;;5055411;28;20040;-77
2023/06/10 05:50:17;;;;;;;12.40;2.92;;;;;;;;;;5055583;28;20059;-78
2023/06/10 05:52:42;;;;;;;5.97;3.03;;;;;;;;;;5038915;28;20036;-78
2023/06/10 05:55:08;;;;;;;4.32;3.03;;;;;;;;;;5058554;28;20053;-77
2023/06/10 05:57:34;;;;;;;4.57;2.90;;;;;;;;;;5059822;28;20494;-77
2023/06/10 05:59:59;;;;;;;6.82;2.75;;;;;;;;;;5059692;28;20085;-78
2023/06/10 06:02:24;;;;;;;7.53;3.30;;;;;;;;;;5059439;28;20032;-77
2023/06/10 06:04:50;;;;;;;11.20;3.30;;;;;;;;;;5060216;28;20035;-78
2023/06/10 06:07:16;;;;;;;7.30;3.10;;;;;;;;;;5058335;28;20127;-77
2023/06/10 06:09:41;;;;;;;6.28;3.15;;;;;;;;;;5059380;28;20042;-77
2023/06/10 06:12:07;;;;;;;4.60;3.20;;;;;;;;;;5077612;28;20033;-77
2023/06/10 06:14:37;;;;;;;7.38;3.15;;;;;;;;;;5060165;28;20056;-77
2023/06/10 06:17:02;;;;;;;5.97;2.90;;;;;;;;;;5059191;28;20433;-78
2023/06/10 06:19:28;;;;;;;5.65;2.90;;;;;;;;;;5076242;28;20029;-78
2023/06/10 06:21:53;;;;;;;7.57;3.15;;;;;;;;;;5076331;28;20031;-77
2023/06/10 06:24:18;;;;;;;7.93;3.25;;;;;;;;;;5058489;28;20024;-77
2023/06/10 06:26:45;;;;;;;7.88;2.95;;;;;;;;;;5059365;28;20024;-77
2023/06/10 06:29:10;;;;;;;11.35;4.22;;;;;;;;;;5056825;28;20115;-77
2023/06/10 06:31:36;;;;;;;5.25;3.13;;;;;;;;;;5064622;28;20068;-77
2023/06/10 06:34:02;;;;;;;7.10;3.03;;;;;;;;;;5063846;28;20472;-77
2023/06/10 06:36:27;;;;;;;8.18;2.88;;;;;;;;;;5038311;28;20029;-78
2023/06/10 06:38:52;;;;;;;10.98;3.20;;;;;;;;;;5021391;28;20033;-77
2023/06/10 06:41:18;;;;;;;7.00;3.17;;;;;;;;;;5043815;28;20052;-77
2023/06/10 06:43:43;;;;;;;13.27;3.15;;;;;;;;;;5054712;28;20028;-77
2023/06/10 06:46:09;;;;;;;7.80;3.58;;;;;;;;;;5054368;28;20044;-78
2023/06/10 06:48:35;;;;;;;25.48;7.13;;;;;;;;;;5055786;28;20029;-77
2023/06/10 06:51:00;;;;;;;46.08;9.32;;;;;;;;;;5054408;28;20024;-76
2023/06/10 06:53:26;;;;;;;38.97;9.90;;;;;;;;;;5055802;28;20055;-76
2023/06/10 06:55:51;;;;;;;31.73;9.05;;;;;;;;;;5038001;28;20108;-76
2023/06/10 06:58:16;;;;;;;29.30;8.23;;;;;;;;;;5070968;28;20033;-76
2023/06/10 07:00:42;;;;;;;28.88;8.15;;;;;;;;;;5054708;28;20479;-76
2023/06/10 07:03:07;;;;;;;26.45;7.85;;;;;;;;;;5060539;28;20368;-77
2023/06/10 07:05:33;;;;;;;27.60;8.25;;;;;;;;;;5074792;28;20048;-78
2023/06/10 07:07:59;;;;;;;28.40;7.78;;;;;;;;;;5075714;28;20043;-77
2023/06/10 07:10:25;;;;;;;18.52;7.05;;;;;;;;;;5082600;28;20041;-77
2023/06/10 07:12:50;;;;;;;17.15;6.38;;;;;;;;;;5074097;28;20024;-77
2023/06/10 07:15:16;;;;;;;19.33;5.55;;;;;;;;;;5074071;28;20028;-77
2023/06/10 07:17:41;;;;;;;10.32;4.75;;;;;;;;;;5074110;28;20039;-77
2023/06/10 07:20:07;;;;;;;12.52;4.85;;;;;;;;;;5073847;28;20043;-76
2023/06/10 07:22:33;;;;;;;11.90;4.70;;;;;;;;;;5073665;28;20036;-76
2023/06/10 07:24:58;;;;;;;9.32;4.15;;;;;;;;;;5073517;28;20020;-77
2023/06/10 07:27:24;;;;;;;10.65;4.50;;;;;;;;;;5073985;28;20472;-77
2023/06/10 07:29:51;;;;;;;12.77;4.53;;;;;;;;;;5075191;28;20395;-77
2023/06/10 07:32:16;;;;;;;19.52;4.07;;;;;;;;;;5073510;28;20028;-79
2023/06/10 07:34:41;;;;;;;17.40;4.50;;;;;;;;;;5056593;28;20024;-77
2023/06/10 07:37:07;;;;;;;8.52;3.75;;;;;;;;;;5073409;28;20442;-77
2023/06/10 07:39:32;;;;;;;12.38;4.70;;;;;;;;;;5073386;28;20051;-78
2023/06/10 07:41:58;;;;;;;11.32;3.85;;;;;;;;;;5056456;28;20569;-78
2023/06/10 07:44:23;;;;;;;12.38;4.15;;;;;;;;;;5056568;28;20024;-79
2023/06/10 07:46:49;;;;;;;12.43;3.70;;;;;;;;;;5074635;28;20032;-79
2023/06/10 07:49:14;;;;;;;8.20;3.75;;;;;;;;;;5072274;28;20032;-79
2023/06/10 07:51:40;;;;;;;10.13;3.88;;;;;;;;;;5054365;28;20486;-79
2023/06/10 07:54:05;;;;;;;6.90;3.90;;;;;;;;;;5054532;28;20040;-78
2023/06/10 07:56:31;;;;;;;9.65;3.70;;;;;;;;;;5054638;28;20033;-76
2023/06/10 07:58:57;;;;;;;7.53;3.50;;;;;;;;;;5054620;28;20051;-77
2023/06/10 08:01:24;;;;;;;14.00;4.00;;;;;;;;;;5036740;28;20064;-76
2023/06/10 08:03:49;;;;;;;11.07;3.65;;;;;;;;;;5037026;28;20024;-76
2023/06/10 08:06:16;;;;;;;12.40;3.95;;;;;;;;;;5055607;28;20024;-78
2023/06/10 08:08:43;;;;;;;7.45;3.33;;;;;;;;;;5055580;28;20024;-78
2023/06/10 08:11:09;;;;;;;12.40;3.75;;;;;;;;;;5053965;28;20041;-78
2023/06/10 08:13:34;;;;;;;9.65;3.25;;;;;;;;;;5053536;28;20029;-77
2023/06/10 08:16:00;;;;;;;8.13;3.13;;;;;;;;;;5054575;28;20028;-77
2023/06/10 08:18:25;;;;;;;5.95;3.30;;;;;;;;;;5052679;28;20032;-79
2023/06/10 08:20:51;;;;;;;5.65;3.22;;;;;;;;;;5053854;28;20029;-77
2023/06/10 08:23:16;;;;;;;5.43;3.55;;;;;;;;;;5052831;28;20479;-79
2023/06/10 08:25:42;;;;;;;5.38;3.03;;;;;;;;;;5053138;28;20383;-79
2023/06/10 08:28:08;;;;;;;4.82;3.03;;;;;;;;;;5053000;28;20025;-77
2023/06/10 08:30:33;;;;;;;5.95;3.28;;;;;;;;;;5052391;28;20040;-77
2023/06/10 08:33:00;;;;;;;6.43;3.25;;;;;;;;;;5053762;28;20024;-80
2023/06/10 08:35:26;;;;;;;6.47;3.28;;;;;;;;;;5052655;28;20494;-76
2023/06/10 08:37:51;;;;;;;6.78;3.03;;;;;;;;;;5035687;28;20056;-78
2023/06/10 08:40:17;;;;;;;4.32;2.90;;;;;;;;;;5052366;28;20033;-78
2023/06/10 08:42:54;;;;;;;5.70;3.25;;;;;;;;;;5036428;28;20044;-76
2023/06/10 08:45:22;;;;;;;8.23;3.40;;;;;;;;;;5035807;28;20108;-78
2023/06/10 08:47:51;;;;;;;5.53;3.10;;;;;;;;;;5035798;28;20064;-78
2023/06/10 08:50:17;;;;;;;6.53;2.75;;;;;;;;;;5019674;28;20502;-77
2023/06/10 08:52:44;;;;;;;6.88;3.22;;;;;;;;;;5053257;28;20037;-78
2023/06/10 08:55:12;;;;;;;8.43;3.35;;;;;;;;;;5053227;28;20029;-78
2023/06/10 08:57:41;;;;;;;9.48;3.58;;;;;;;;;;5035900;28;20126;-77
2023/06/10 09:00:08;;;;;;;6.38;3.08;;;;;;;;;;5035516;28;20472;-77
2023/06/10 09:02:35;;;;;;;9.02;3.22;;;;;;;;;;5019280;28;20086;-77
2023/06/10 09:05:02;;;;;;;7.70;3.72;;;;;;;;;;5036018;28;20483;-77
2023/06/10 09:07:31;;;;;;;7.07;3.47;;;;;;;;;;5035327;28;20029;-77
2023/06/10 09:09:57;;;;;;;8.90;3.05;;;;;;;;;;5019247;28;20033;-77
2023/06/10 09:12:24;;;;;;;5.05;3.60;;;;;;;;;;5035729;28;20036;-78
2023/06/10 09:14:49;;;;;;;9.32;3.10;;;;;;;;;;5035239;28;20035;-78
2023/06/10 09:17:16;;;;;;;7.18;3.17;;;;;;;;;;5035793;28;20115;-78
2023/06/10 09:19:42;;;;;;;10.15;3.15;;;;;;;;;;5035135;28;20032;-78
2023/06/10 09:22:07;;;;;;;4.88;3.13;;;;;;;;;;5035309;28;20041;-78
2023/06/10 09:24:33;;;;;;;6.68;3.40;;;;;;;;;;5052926;28;20104;-77
2023/06/10 09:27:07;;;;;;;6.97;3.08;;;;;;;;;;5052826;28;20035;-78
2023/06/10 09:29:46;;;;;;;7.32;3.38;;;;;;;;;;5052153;28;20044;-79
2023/06/10 09:32:12;;;;;;;4.80;3.25;;;;;;;;;;5052943;28;20058;-78
2023/06/10 09:34:37;;;;;;;6.38;3.30;;;;;;;;;;5052614;28;20040;-78
2023/06/10 09:37:03;;;;;;;6.72;3.30;;;;;;;;;;5034750;28;20364;-78
2023/06/10 09:39:29;;;;;;;3.72;2.70;;;;;;;;;;5034619;28;20024;-78
2023/06/10 09:41:55;;;;;;;5.95;3.08;;;;;;;;;;5034740;28;20111;-79
2023/06/10 09:44:21;;;;;;;6.07;2.88;;;;;;;;;;5035129;28;20442;-78
2023/06/10 09:46:54;;;;;;;7.18;3.17;;;;;;;;;;5035110;28;20044;-79
2023/06/10 09:49:20;;;;;;;6.47;3.25;;;;;;;;;;5020003;28;20107;-78
2023/06/10 09:51:52;;;;;;;4.72;3.55;;;;;;;;;;5035140;28;20112;-78
2023/06/10 09:54:18;;;;;;;12.43;3.20;;;;;;;;;;5052696;28;20028;-78
2023/06/10 09:56:50;;;;;;;5.40;3.67;;;;;;;;;;5018965;28;20041;-78
2023/06/10 09:59:15;;;;;;;6.50;3.08;;;;;;;;;;5035120;28;20464;-78
2023/06/10 10:01:41;;;;;;;4.50;2.88;;;;;;;;;;5052801;28;20036;-78
2023/06/10 10:04:06;;;;;;;6.10;3.28;;;;;;;;;;5018744;28;20035;-78
2023/06/10 10:06:32;;;;;;;3.95;2.83;;;;;;;;;;5053265;28;20032;-79
2023/06/10 10:08:57;;;;;;;6.65;3.30;;;;;;;;;;5034961;28;20151;-78
2023/06/10 10:11:25;;;;;;;4.10;2.80;;;;;;;;;;5053187;28;20029;-78
2023/06/10 10:13:52;;;;;;;4.70;2.60;;;;;;;;;;5019032;28;20495;-78
2023/06/10 10:16:20;;;;;;;5.45;2.63;;;;;;;;;;5034931;28;20463;-78
2023/06/10 10:18:55;;;;;;;6.15;2.65;;;;;;;;;;5034652;28;20045;-79
2023/06/10 10:21:25;;;;;;;4.97;2.90;;;;;;;;;;5018169;28;20365;-79
2023/06/10 10:24:07;;;;;;;4.38;3.00;;;;;;;;;;5034560;28;20032;-78
2023/06/10 10:26:34;;;;;;;5.97;2.90;;;;;;;;;;5018334;28;20025;-78
2023/06/10 10:29:21;;;;;;;5.68;3.00;;;;;;;;;;5017991;28;20120;-77
2023/06/10 10:31:53;;;;;;;6.93;3.25;;;;;;;;;;5034959;28;20032;-78
2023/06/10 10:34:27;;;;;;;4.50;2.85;;;;;;;;;;5034405;28;20017;-77
2023/06/10 10:36:53;;;;;;;3.22;2.47;;;;;;;;;;5017721;28;20029;-77
2023/06/10 10:39:19;;;;;;;9.85;4.05;;;;;;;;;;5017954;28;20368;-77
2023/06/10 10:41:45;;;;;;;12.80;4.40;;;;;;;;;;5055627;28;20049;-77
2023/06/10 10:44:11;;;;;;;7.53;3.50;;;;;;;;;;5038019;28;20048;-78
2023/06/10 10:46:44;;;;;;;9.93;4.93;;;;;;;;;;5038648;28;20029;-77
2023/06/10 10:49:11;;;;;;;11.48;4.65;;;;;;;;;;5021479;28;20369;-77
2023/06/10 10:51:37;;;;;;;9.82;4.13;;;;;;;;;;5037864;28;20034;-77
2023/06/10 10:54:13;;;;;;;8.95;4.53;;;;;;;;;;5021224;28;20433;-77
2023/06/10 10:56:39;;;;;;;13.20;5.03;;;;;;;;;;5054196;28;20461;-77
2023/06/10 10:59:05;;;;;;;12.50;4.95;;;;;;;;;;5038094;28;20029;-77
2023/06/10 11:01:41;;;;;;;11.85;4.35;;;;;;;;;;5038116;28;20039;-78
2023/06/10 11:04:09;;;;;;;9.60;4.00;;;;;;;;;;5021647;28;20033;-77
2023/06/10 11:06:34;;;;;;;9.32;4.05;;;;;;;;;;5037821;28;20078;-77
2023/06/10 11:09:00;;;;;;;9.95;4.22;;;;;;;;;;5021240;28;20036;-77
2023/06/10 11:11:27;;;;;;;9.32;4.13;;;;;;;;;;5038843;28;20097;-77
2023/06/10 11:14:08;;;;;;;10.55;4.55;;;;;;;;;;5021233;28;20116;-77
2023/06/10 11:16:43;;;;;;;14.85;4.60;;;;;;;;;;5056176;28;20032;-77
2023/06/10 11:19:09;;;;;;;15.50;4.75;;;;;;;;;;5037643;28;20495;-77
2023/06/10 11:22:00;;;;;;;16.35;4.25;;;;;;;;;;5037875;28;20032;-77
2023/06/10 11:24:26;;;;;;;6.60;3.95;;;;;;;;;;5056128;28;20025;-77
2023/06/10 11:26:51;;;;;;;10.48;3.70;;;;;;;;;;5022508;28;20231;-77
2023/06/10 11:29:17;;;;;;;8.23;3.80;;;;;;;;;;5039395;28;20064;-77
2023/06/10 11:31:45;;;;;;;12.52;4.45;;;;;;;;;;5038501;28;20373;-77
2023/06/10 11:34:11;;;;;;;8.88;3.65;;;;;;;;;;5021884;28;20051;-77
2023/06/10 11:36:42;;;;;;;7.95;3.67;;;;;;;;;;5038930;28;20436;-76
2023/06/10 11:39:08;;;;;;;8.80;3.70;;;;;;;;;;5038003;28;20067;-77
2023/06/10 11:41:35;;;;;;;7.25;3.38;;;;;;;;;;5020659;28;20052;-77
2023/06/10 11:44:11;;;;;;;8.07;3.80;;;;;;;;;;5037269;28;20361;-77
2023/06/10 11:46:37;;;;;;;7.95;3.80;;;;;;;;;;5037550;28;20025;-77
2023/06/10 11:49:03;;;;;;;10.10;3.55;;;;;;;;;;5037118;28;20048;-77
2023/06/10 11:51:36;;;;;;;7.00;3.75;;;;;;;;;;5054523;28;20029;-77
2023/06/10 11:54:03;;;;;;;8.53;3.27;;;;;;;;;;5037110;28;20060;-77
2023/06/10 11:56:29;;;;;;;6.18;3.40;;;;;;;;;;5037321;28;20265;-77
2023/06/10 11:59:07;;;;;;;5.82;3.70;;;;;;;;;;5037125;28;20059;-77
2023/06/10 12:01:45;;;;;;;6.45;3.25;;;;;;;;;;5055364;28;20029;-78
2023/06/10 12:04:12;;;;;;;6.25;3.08;;;;;;;;;;5020385;28;20025;-77
2023/06/10 12:06:43;;;;;;;7.68;3.47;;;;;;;;;;5037009;28;20025;-77
2023/06/10 12:09:15;;;;;;;5.68;3.15;;;;;;;;;;5037064;28;20108;-77
2023/06/10 12:11:43;;;;;;;5.75;3.30;;;;;;;;;;5055355;28;20041;-77
2023/06/10 12:14:08;;;;;;;4.75;2.92;;;;;;;;;;5020585;28;20033;-77
2023/06/10 12:16:34;;;;;;;6.40;3.58;;;;;;;;;;5036702;28;20033;-77
2023/06/10 12:19:04;;;;;;;7.25;3.17;;;;;;;;;;5036862;28;20100;-77
2023/06/10 12:21:30;;;;;;;3.33;2.60;;;;;;;;;;5036720;28;20115;-77
2023/06/10 12:24:07;;;;;;;5.60;3.20;;;;;;;;;;5020096;28;20056;-77
2023/06/10 12:26:36;;;;;;;4.85;2.80;;;;;;;;;;5036154;28;20031;-77
2023/06/10 12:29:24;;;;;;;6.78;3.10;;;;;;;;;;5036589;28;20060;-77
2023/06/10 12:31:57;;;;;;;6.25;3.25;;;;;;;;;;5036753;28;20483;-77
2023/06/10 12:34:33;;;;;;;7.13;2.95;;;;;;;;;;5036211;28;20036;-78
2023/06/10 12:36:59;;;;;;;3.85;2.65;;;;;;;;;;5054004;28;20390;-77
2023/06/10 12:39:24;;;;;;;4.47;2.85;;;;;;;;;;5019348;28;20029;-76
2023/06/10 12:41:51;;;;;;;4.82;3.00;;;;;;;;;;5046056;28;20053;-77
2023/06/10 12:44:16;;;;;;;4.65;3.03;;;;;;;;;;5053850;28;20037;-77
2023/06/10 12:46:42;;;;;;;5.80;3.30;;;;;;;;;;5054575;28;20028;-77
2023/06/10 12:49:07;;;;;;;3.70;2.90;;;;;;;;;;5053520;28;20040;-77
2023/06/10 12:51:34;;;;;;;5.00;2.80;;;;;;;;;;5053477;28;20102;-77
2023/06/10 12:54:00;;;;;;;6.60;3.20;;;;;;;;;;5052075;28;20036;-77
2023/06/10 12:56:25;;;;;;;4.72;2.80;;;;;;;;;;5052286;28;20028;-77
2023/06/10 12:58:50;;;;;;;5.18;2.95;;;;;;;;;;5052117;28;20029;-77
2023/06/10 13:01:16;;;;;;;3.88;2.85;;;;;;;;;;5053373;28;20372;-78
2023/06/10 13:03:42;;;;;;;5.97;3.08;;;;;;;;;;5051984;28;20029;-77
2023/06/10 13:06:07;;;;;;;5.32;2.70;;;;;;;;;;5053724;28;20029;-77
2023/06/10 13:08:32;;;;;;;3.88;2.60;;;;;;;;;;5051921;28;20499;-77
2023/06/10 13:10:59;;;;;;;5.57;2.83;;;;;;;;;;5035417;28;20445;-77
2023/06/10 13:13:25;;;;;;;4.47;3.05;;;;;;;;;;5035931;28;20029;-77
2023/06/10 13:15:51;;;;;;;4.22;2.80;;;;;;;;;;5035921;28;20036;-77
2023/06/10 13:18:18;;;;;;;3.42;2.80;;;;;;;;;;5054192;28;20032;-77
2023/06/10 13:20:44;;;;;;;4.95;2.97;;;;;;;;;;5054589;28;20040;-77
2023/06/10 13:23:09;;;;;;;7.30;3.42;;;;;;;;;;5036574;28;20036;-77
2023/06/10 13:25:35;;;;;;;4.90;2.90;;;;;;;;;;5055608;28;20064;-77
2023/06/10 13:28:00;;;;;;;7.15;3.17;;;;;;;;;;5055552;28;20033;-77
2023/06/10 13:30:26;;;;;;;4.65;2.75;;;;;;;;;;5053784;28;20032;-76
2023/06/10 13:32:51;;;;;;;5.47;2.63;;;;;;;;;;5053409;28;20033;-77
2023/06/10 13:35:17;;;;;;;3.85;2.70;;;;;;;;;;5052207;28;20087;-77
2023/06/10 13:37:42;;;;;;;3.85;2.85;;;;;;;;;;5036165;28;20114;-77
2023/06/10 13:40:09;;;;;;;4.53;2.78;;;;;;;;;;5053737;28;20029;-77
2023/06/10 13:42:36;;;;;;;4.50;2.80;;;;;;;;;;5035477;28;20056;-77
2023/06/10 13:45:02;;;;;;;2.83;2.60;;;;;;;;;;5053599;28;20029;-77
2023/06/10 13:47:27;;;;;;;4.65;2.83;;;;;;;;;;5053326;28;20025;-77
2023/06/10 13:49:53;;;;;;;3.92;3.03;;;;;;;;;;5053675;28;20095;-77
2023/06/10 13:52:18;;;;;;;5.40;2.55;;;;;;;;;;5053139;28;20029;-77
2023/06/10 13:54:44;;;;;;;4.13;2.78;;;;;;;;;;5051521;28;20064;-77
2023/06/10 13:57:10;;;;;;;3.40;2.60;;;;;;;;;;5051698;28;20429;-77
2023/06/10 13:59:35;;;;;;;4.97;2.42;;;;;;;;;;5052671;28;20037;-76
2023/06/10 14:02:01;;;;;;;4.20;3.00;;;;;;;;;;5051990;28;20025;-76
2023/06/10 14:04:26;;;;;;;5.20;3.00;;;;;;;;;;5053136;28;20395;-77
2023/06/10 14:06:52;;;;;;;5.43;2.95;;;;;;;;;;5052066;28;20064;-77
2023/06/10 14:09:17;;;;;;;3.55;2.47;;;;;;;;;;5034688;28;20115;-77
2023/06/10 14:11:43;;;;;;;3.90;2.65;;;;;;;;;;5053081;28;20036;-76
2023/06/10 14:14:09;;;;;;;2.92;2.60;;;;;;;;;;5053293;28;20032;-77
2023/06/10 14:16:34;;;;;;;4.93;2.80;;;;;;;;;;5056453;28;20450;-77
2023/06/10 14:19:00;;;;;;;3.10;2.80;;;;;;;;;;5055112;28;20048;-77
2023/06/10 14:21:25;;;;;;;3.65;2.63;;;;;;;;;;5055961;28;20415;-77
2023/06/10 14:23:54;;;;;;;5.05;2.42;;;;;;;;;;5055389;28;20033;-77
2023/06/10 14:26:21;;;;;;;4.97;2.88;;;;;;;;;;5056609;28;20341;-76
2023/06/10 14:28:47;;;;;;;3.95;2.72;;;;;;;;;;5056840;28;20029;-76
2023/06/10 14:31:12;;;;;;;3.33;2.60;;;;;;;;;;5055262;28;20546;-77
2023/06/10 14:33:39;;;;;;;3.17;2.65;;;;;;;;;;5055468;28;20458;-77
2023/06/10 14:36:05;;;;;;;3.40;2.78;;;;;;;;;;5057530;28;20484;-76
2023/06/10 14:38:30;;;;;;;3.50;2.88;;;;;;;;;;5057787;28;20036;-77